Time;durP1;ratioP1;P1;durP2;ratioP2;P2;SDS_P1;SDS_P2;PMS_P1;PMS_P2;Temp;Humidity;BMP_temperature;BMP_pressure;BME280_temperature;BME280_humidity;BME280_pressure;Samples;Min_cycle;Max_cycle;Signal;HPM_P1;HPM_P2
2021/03/13 00:01:28;;;;;;;3.30;1.33;;;;;;;;;;5070001;28;20393;-85
2021/03/13 00:03:54;;;;;;;1.60;0.70;;;;;;;;;;5089691;28;20746;-85
2021/03/13 00:06:20;;;;;;;1.92;0.80;;;;;;;;;;5089509;28;20390;-85
2021/03/13 00:08:46;;;;;;;3.27;1.17;;;;;;;;;;5088432;28;20402;-85
2021/03/13 00:11:12;;;;;;;2.65;0.73;;;;;;;;;;5054496;28;20407;-85
2021/03/13 00:13:38;;;;;;;1.48;0.75;;;;;;;;;;5075502;28;20421;-85
2021/03/13 00:16:05;;;;;;;1.48;0.77;;;;;;;;;;5083379;28;20483;-85
2021/03/13 00:18:31;;;;;;;2.28;0.68;;;;;;;;;;5074678;28;20894;-85
2021/03/13 00:20:57;;;;;;;0.95;0.57;;;;;;;;;;5090202;28;20403;-85
2021/03/13 00:23:25;;;;;;;2.53;0.70;;;;;;;;;;5072947;28;20914;-85
2021/03/13 00:25:51;;;;;;;4.57;0.80;;;;;;;;;;5074143;28;20394;-85
2021/03/13 00:28:17;;;;;;;5.00;0.70;;;;;;;;;;5073407;28;20882;-85
2021/03/13 00:30:43;;;;;;;1.90;0.60;;;;;;;;;;5073610;28;20437;-85
2021/03/13 00:33:10;;;;;;;2.45;0.70;;;;;;;;;;5074657;28;20440;-85
2021/03/13 00:35:36;;;;;;;1.13;0.63;;;;;;;;;;5077165;28;20437;-85
2021/03/13 00:38:03;;;;;;;2.28;0.90;;;;;;;;;;5080883;28;20909;-84
2021/03/13 00:40:30;;;;;;;0.60;0.40;;;;;;;;;;5102727;28;20437;-85
2021/03/13 00:42:56;;;;;;;2.17;0.70;;;;;;;;;;5074244;28;20423;-85
2021/03/13 00:45:23;;;;;;;3.10;0.80;;;;;;;;;;5073229;28;20398;-85
2021/03/13 00:47:49;;;;;;;3.55;0.85;;;;;;;;;;5056300;28;20407;-85
2021/03/13 00:50:15;;;;;;;0.80;0.40;;;;;;;;;;5089878;28;20918;-85
2021/03/13 00:52:41;;;;;;;1.60;0.40;;;;;;;;;;5089150;28;20876;-85
2021/03/13 00:55:08;;;;;;;2.97;0.43;;;;;;;;;;5089875;28;20884;-85
2021/03/13 00:57:34;;;;;;;0.47;0.40;;;;;;;;;;5074523;28;20456;-85
2021/03/13 01:00:00;;;;;;;1.45;0.90;;;;;;;;;;5076335;28;20378;-85
2021/03/13 01:02:26;;;;;;;0.52;0.40;;;;;;;;;;5089800;28;20485;-85
2021/03/13 01:04:52;;;;;;;2.67;0.50;;;;;;;;;;5089444;28;20403;-85
2021/03/13 01:07:18;;;;;;;4.20;0.60;;;;;;;;;;5087100;28;20409;-85
2021/03/13 01:09:44;;;;;;;3.45;0.52;;;;;;;;;;5066582;28;20395;-85
2021/03/13 01:12:10;;;;;;;2.58;0.80;;;;;;;;;;5089373;28;20380;-85
2021/03/13 01:14:36;;;;;;;0.73;0.45;;;;;;;;;;5090074;28;20390;-85
2021/03/13 01:17:02;;;;;;;0.97;0.53;;;;;;;;;;5061974;28;20742;-85
2021/03/13 01:19:28;;;;;;;0.80;0.47;;;;;;;;;;5091050;28;20411;-85
2021/03/13 01:21:54;;;;;;;0.88;0.50;;;;;;;;;;5071756;28;20555;-85
2021/03/13 01:24:19;;;;;;;1.25;0.50;;;;;;;;;;5088810;28;21094;-85
2021/03/13 01:26:45;;;;;;;2.17;0.60;;;;;;;;;;5073513;28;20400;-86
2021/03/13 01:29:11;;;;;;;2.33;0.60;;;;;;;;;;5087029;28;20511;-85
2021/03/13 01:31:37;;;;;;;3.67;0.98;;;;;;;;;;5089986;28;20380;-86
2021/03/13 01:34:03;;;;;;;4.15;0.70;;;;;;;;;;5081534;28;20465;-85
2021/03/13 01:36:29;;;;;;;5.50;1.15;;;;;;;;;;5084105;28;20402;-86
2021/03/13 01:38:55;;;;;;;7.07;1.10;;;;;;;;;;5073375;28;20419;-85
2021/03/13 01:41:21;;;;;;;2.92;0.75;;;;;;;;;;5055256;28;20387;-86
2021/03/13 01:43:47;;;;;;;3.60;1.40;;;;;;;;;;5071483;28;20496;-85
2021/03/13 01:46:13;;;;;;;4.22;0.88;;;;;;;;;;5074629;28;20473;-85
2021/03/13 01:48:43;;;;;;;3.80;1.40;;;;;;;;;;5073852;28;21020;-85
2021/03/13 01:51:09;;;;;;;4.05;0.80;;;;;;;;;;5071995;28;20396;-85
2021/03/13 01:53:35;;;;;;;3.30;0.88;;;;;;;;;;5093076;28;20915;-85
2021/03/13 01:56:01;;;;;;;4.63;1.50;;;;;;;;;;5072291;28;20396;-85
2021/03/13 01:58:27;;;;;;;3.17;0.98;;;;;;;;;;5091993;28;20914;-85
2021/03/13 02:00:53;;;;;;;2.72;0.88;;;;;;;;;;5059520;28;20984;-86
2021/03/13 02:03:19;;;;;;;3.30;1.30;;;;;;;;;;5088414;28;20453;-86
2021/03/13 02:05:46;;;;;;;4.20;1.02;;;;;;;;;;5073441;28;20818;-85
2021/03/13 02:08:15;;;;;;;4.45;1.20;;;;;;;;;;5078895;28;20417;-85
2021/03/13 02:10:43;;;;;;;2.25;0.93;;;;;;;;;;5072678;28;20955;-85
2021/03/13 02:13:29;;;;;;;1.42;0.85;;;;;;;;;;5087406;28;20391;-85
2021/03/13 02:15:55;;;;;;;1.90;1.00;;;;;;;;;;5087928;28;20471;-86
2021/03/13 02:18:41;;;;;;;5.53;1.40;;;;;;;;;;5088107;28;20467;-86
2021/03/13 02:21:08;;;;;;;3.33;1.20;;;;;;;;;;5066164;28;20793;-86
2021/03/13 02:23:37;;;;;;;3.40;1.05;;;;;;;;;;5076379;28;20415;-85
2021/03/13 02:26:22;;;;;;;3.95;0.80;;;;;;;;;;5104497;28;20400;-86
2021/03/13 02:28:53;;;;;;;8.52;2.22;;;;;;;;;;5072379;28;20592;-85
2021/03/13 02:31:19;;;;;;;4.00;1.33;;;;;;;;;;5068465;28;20397;-85
2021/03/13 02:33:45;;;;;;;4.70;1.35;;;;;;;;;;5073876;28;20386;-85
2021/03/13 02:36:12;;;;;;;4.80;1.17;;;;;;;;;;5070290;28;20407;-85
2021/03/13 02:38:40;;;;;;;4.10;1.17;;;;;;;;;;5070991;28;20388;-85
2021/03/13 02:41:06;;;;;;;3.15;1.00;;;;;;;;;;5088380;28;20406;-85
2021/03/13 02:43:35;;;;;;;6.38;1.35;;;;;;;;;;5089377;28;20951;-86
2021/03/13 02:46:01;;;;;;;2.17;1.00;;;;;;;;;;5091508;28;20404;-86
2021/03/13 02:48:28;;;;;;;3.63;0.95;;;;;;;;;;5090515;28;20439;-86
2021/03/13 02:50:54;;;;;;;2.72;1.20;;;;;;;;;;5070595;28;20394;-85
2021/03/13 02:53:20;;;;;;;5.05;1.25;;;;;;;;;;5070303;28;20487;-86
2021/03/13 02:55:47;;;;;;;5.72;1.25;;;;;;;;;;5089394;28;20401;-86
2021/03/13 02:58:13;;;;;;;3.53;0.90;;;;;;;;;;5063751;28;20962;-86
2021/03/13 03:00:39;;;;;;;4.80;0.88;;;;;;;;;;5081323;28;20502;-86
2021/03/13 03:03:05;;;;;;;5.15;0.90;;;;;;;;;;5070498;28;20418;-86
2021/03/13 03:05:31;;;;;;;3.97;0.88;;;;;;;;;;5053770;28;20871;-85
2021/03/13 03:08:00;;;;;;;5.93;0.95;;;;;;;;;;5081939;28;20529;-86
2021/03/13 03:10:27;;;;;;;3.83;1.08;;;;;;;;;;5094792;28;20751;-86
2021/03/13 03:12:52;;;;;;;4.40;1.45;;;;;;;;;;5071679;28;20380;-86
2021/03/13 03:15:21;;;;;;;2.47;0.70;;;;;;;;;;5087706;28;20399;-86
2021/03/13 03:17:47;;;;;;;5.13;1.55;;;;;;;;;;5085816;28;20505;-86
2021/03/13 03:20:13;;;;;;;3.35;0.77;;;;;;;;;;5071545;28;20479;-86
2021/03/13 03:22:39;;;;;;;2.75;0.90;;;;;;;;;;5069730;28;20450;-86
2021/03/13 03:25:06;;;;;;;5.70;0.90;;;;;;;;;;5074776;28;20460;-86
2021/03/13 03:27:32;;;;;;;4.75;0.80;;;;;;;;;;5086088;28;20947;-86
2021/03/13 03:29:57;;;;;;;3.90;1.40;;;;;;;;;;5076505;28;20423;-86
2021/03/13 03:32:23;;;;;;;6.65;1.55;;;;;;;;;;5075324;28;20395;-86
2021/03/13 03:34:49;;;;;;;4.70;2.08;;;;;;;;;;5071229;28;20404;-86
2021/03/13 03:37:15;;;;;;;4.65;2.25;;;;;;;;;;5080254;28;20424;-86
2021/03/13 03:39:41;;;;;;;10.00;4.07;;;;;;;;;;5071670;28;20873;-86
2021/03/13 03:42:07;;;;;;;12.13;3.67;;;;;;;;;;5086057;28;20975;-86
2021/03/13 03:44:41;;;;;;;9.25;2.83;;;;;;;;;;5064827;28;20415;-85
2021/03/13 03:47:07;;;;;;;6.20;2.20;;;;;;;;;;5064770;28;20402;-86
2021/03/13 03:49:33;;;;;;;14.05;4.43;;;;;;;;;;5069425;28;20407;-86
2021/03/13 03:51:59;;;;;;;15.57;4.68;;;;;;;;;;5091001;28;20464;-86
2021/03/13 03:54:25;;;;;;;12.07;2.97;;;;;;;;;;5090932;28;20388;-87
2021/03/13 03:56:51;;;;;;;16.58;4.38;;;;;;;;;;5105826;28;20399;-85
2021/03/13 03:59:18;;;;;;;11.65;3.80;;;;;;;;;;5075783;28;21036;-86
2021/03/13 04:01:45;;;;;;;14.35;4.18;;;;;;;;;;5088454;28;20401;-85
2021/03/13 04:04:11;;;;;;;6.43;1.85;;;;;;;;;;5064636;28;20415;-86
2021/03/13 04:06:37;;;;;;;7.70;1.88;;;;;;;;;;5092681;28;20389;-86
2021/03/13 04:09:03;;;;;;;6.43;1.80;;;;;;;;;;5074288;28;20409;-85
2021/03/13 04:11:29;;;;;;;6.28;1.42;;;;;;;;;;5073202;28;20387;-85
2021/03/13 04:13:56;;;;;;;4.17;1.50;;;;;;;;;;5101733;28;20971;-85
2021/03/13 04:16:22;;;;;;;2.83;1.55;;;;;;;;;;5089167;28;20401;-86
2021/03/13 04:18:48;;;;;;;5.20;1.98;;;;;;;;;;5078489;28;20399;-86
2021/03/13 04:21:14;;;;;;;5.68;1.45;;;;;;;;;;5057345;28;20446;-86
2021/03/13 04:23:42;;;;;;;6.40;1.35;;;;;;;;;;5088141;28;20414;-86
2021/03/13 04:26:07;;;;;;;4.55;1.00;;;;;;;;;;5107119;28;20812;-86
2021/03/13 04:28:33;;;;;;;6.30;1.27;;;;;;;;;;5070137;28;20391;-86
2021/03/13 04:31:00;;;;;;;3.65;0.75;;;;;;;;;;5078958;28;20432;-85
2021/03/13 04:33:25;;;;;;;6.20;1.90;;;;;;;;;;5068191;28;20742;-85
2021/03/13 04:35:52;;;;;;;3.67;1.17;;;;;;;;;;5077200;28;20403;-86
2021/03/13 04:38:18;;;;;;;2.83;1.00;;;;;;;;;;5099918;28;20432;-86
2021/03/13 04:40:45;;;;;;;3.00;0.70;;;;;;;;;;5064395;28;20507;-86
2021/03/13 04:43:11;;;;;;;4.10;0.80;;;;;;;;;;5085117;28;20410;-85
2021/03/13 04:45:37;;;;;;;3.72;0.98;;;;;;;;;;5058890;28;20746;-86
2021/03/13 04:48:03;;;;;;;2.08;0.77;;;;;;;;;;5093402;28;20418;-86
2021/03/13 04:50:29;;;;;;;3.80;1.27;;;;;;;;;;5084532;28;20407;-85
2021/03/13 04:52:55;;;;;;;2.47;0.80;;;;;;;;;;5060760;28;20482;-85
2021/03/13 04:55:21;;;;;;;3.95;0.93;;;;;;;;;;5072846;28;20387;-85
2021/03/13 04:57:47;;;;;;;4.43;1.00;;;;;;;;;;5078720;28;20414;-85
2021/03/13 05:00:14;;;;;;;2.50;0.60;;;;;;;;;;5105879;28;20398;-85
2021/03/13 05:02:40;;;;;;;5.10;0.82;;;;;;;;;;5076333;28;20475;-85
2021/03/13 05:05:06;;;;;;;2.97;0.80;;;;;;;;;;5087730;28;20408;-86
2021/03/13 05:07:32;;;;;;;4.88;1.50;;;;;;;;;;5055900;28;20482;-86
2021/03/13 05:09:58;;;;;;;4.85;0.90;;;;;;;;;;5074880;28;20502;-86
2021/03/13 05:12:24;;;;;;;5.97;1.13;;;;;;;;;;5077085;28;20398;-86
2021/03/13 05:14:50;;;;;;;3.90;1.10;;;;;;;;;;5073139;28;20398;-85
2021/03/13 05:17:16;;;;;;;4.33;0.90;;;;;;;;;;5073216;28;20408;-86
2021/03/13 05:19:42;;;;;;;4.05;0.65;;;;;;;;;;5092650;28;20398;-86
2021/03/13 05:22:08;;;;;;;4.57;1.02;;;;;;;;;;5066781;28;20400;-86
2021/03/13 05:24:34;;;;;;;3.13;1.00;;;;;;;;;;5089015;28;20534;-86
2021/03/13 05:27:00;;;;;;;5.50;1.13;;;;;;;;;;5094031;28;20482;-85
2021/03/13 05:29:26;;;;;;;4.30;1.05;;;;;;;;;;5055544;28;20416;-86
2021/03/13 05:31:52;;;;;;;3.15;0.80;;;;;;;;;;5072343;28;20492;-86
2021/03/13 05:34:18;;;;;;;4.25;0.80;;;;;;;;;;5072561;28;20396;-86
2021/03/13 05:36:44;;;;;;;2.50;0.77;;;;;;;;;;5089629;28;20453;-85
2021/03/13 05:39:10;;;;;;;2.83;0.73;;;;;;;;;;5058818;28;20395;-86
2021/03/13 05:41:36;;;;;;;3.53;1.00;;;;;;;;;;5104892;28;20402;-85
2021/03/13 05:44:04;;;;;;;4.50;1.05;;;;;;;;;;5071548;28;20422;-86
2021/03/13 05:46:36;;;;;;;3.13;1.02;;;;;;;;;;5077562;28;20494;-86
2021/03/13 05:49:03;;;;;;;2.90;0.90;;;;;;;;;;5054938;28;20387;-86
2021/03/13 05:51:29;;;;;;;5.57;1.10;;;;;;;;;;5088447;28;20417;-86
2021/03/13 05:53:55;;;;;;;2.83;1.17;;;;;;;;;;5071842;28;20387;-86
2021/03/13 05:56:21;;;;;;;3.05;0.90;;;;;;;;;;5088764;28;20491;-86
2021/03/13 05:58:46;;;;;;;4.65;1.20;;;;;;;;;;5071974;28;20461;-86
2021/03/13 06:01:12;;;;;;;2.40;0.90;;;;;;;;;;5076524;28;20402;-85
2021/03/13 06:03:38;;;;;;;4.65;1.15;;;;;;;;;;5089285;28;20975;-86
2021/03/13 06:06:05;;;;;;;4.10;1.40;;;;;;;;;;5073594;28;20393;-86
2021/03/13 06:08:31;;;;;;;4.82;0.85;;;;;;;;;;5086271;28;20398;-85
2021/03/13 06:10:57;;;;;;;2.78;0.88;;;;;;;;;;5084058;28;20481;-86
2021/03/13 06:13:24;;;;;;;2.30;0.88;;;;;;;;;;5082563;28;20488;-86
2021/03/13 06:15:50;;;;;;;3.23;0.90;;;;;;;;;;5054904;28;20460;-85
2021/03/13 06:18:16;;;;;;;4.15;1.00;;;;;;;;;;5046477;28;20404;-87
2021/03/13 06:20:42;;;;;;;5.32;1.13;;;;;;;;;;5077418;28;20457;-86
2021/03/13 06:23:08;;;;;;;2.08;0.73;;;;;;;;;;5078672;28;20864;-86
2021/03/13 06:25:34;;;;;;;4.73;1.33;;;;;;;;;;5071091;28;20812;-86
2021/03/13 06:28:00;;;;;;;2.90;0.93;;;;;;;;;;5090885;28;20415;-87
2021/03/13 06:30:30;;;;;;;5.38;1.02;;;;;;;;;;5105597;28;20495;-86
2021/03/13 06:32:56;;;;;;;3.78;1.00;;;;;;;;;;5111743;28;20430;-86
2021/03/13 06:35:26;;;;;;;3.58;1.30;;;;;;;;;;5076539;28;20440;-87
2021/03/13 06:37:56;;;;;;;6.22;2.45;;;;;;;;;;5076526;28;20390;-87
2021/03/13 06:40:29;;;;;;;3.80;1.08;;;;;;;;;;5056608;28;20414;-87
2021/03/13 06:42:55;;;;;;;3.50;1.55;;;;;;;;;;5060167;28;20489;-87
2021/03/13 06:45:22;;;;;;;3.92;1.30;;;;;;;;;;5094016;28;20399;-86
2021/03/13 06:47:48;;;;;;;6.10;2.10;;;;;;;;;;5070710;28;20388;-89
2021/03/13 06:50:15;;;;;;;7.18;1.25;;;;;;;;;;5096509;28;20454;-86
2021/03/13 06:52:42;;;;;;;5.78;1.55;;;;;;;;;;5090176;28;20404;-86
2021/03/13 06:55:11;;;;;;;4.10;1.48;;;;;;;;;;5090551;28;20396;-86
2021/03/13 06:57:37;;;;;;;6.30;2.25;;;;;;;;;;5064567;28;20407;-87
2021/03/13 07:00:04;;;;;;;4.13;1.48;;;;;;;;;;5080535;28;20396;-86
2021/03/13 07:02:30;;;;;;;3.53;0.95;;;;;;;;;;5095312;27;20762;-89
2021/03/13 07:05:09;;;;;;;4.20;1.37;;;;;;;;;;5089693;28;20486;-86
2021/03/13 07:07:35;;;;;;;4.00;1.30;;;;;;;;;;5070221;28;20434;-86
2021/03/13 07:10:01;;;;;;;4.40;0.82;;;;;;;;;;5066800;28;20423;-87
2021/03/13 07:12:28;;;;;;;5.03;1.05;;;;;;;;;;5094431;28;21463;-86
2021/03/13 07:14:55;;;;;;;4.30;1.33;;;;;;;;;;5080745;28;20801;-86
2021/03/13 07:17:23;;;;;;;2.78;0.88;;;;;;;;;;5074256;28;20403;-86
2021/03/13 07:19:48;;;;;;;5.57;1.25;;;;;;;;;;5076026;28;20424;-86
2021/03/13 07:22:14;;;;;;;2.88;0.85;;;;;;;;;;5061736;28;20415;-86
2021/03/13 07:24:41;;;;;;;6.13;1.80;;;;;;;;;;5069464;28;20453;-86
2021/03/13 07:27:08;;;;;;;4.18;1.40;;;;;;;;;;5073023;28;20398;-86
2021/03/13 07:29:36;;;;;;;3.10;0.85;;;;;;;;;;5081609;28;20917;-86
2021/03/13 07:32:21;;;;;;;6.38;1.70;;;;;;;;;;5077800;28;20394;-86
2021/03/13 07:35:11;;;;;;;3.20;0.70;;;;;;;;;;5063900;28;20403;-87
2021/03/13 07:37:38;;;;;;;3.67;1.00;;;;;;;;;;5070057;28;20407;-86
2021/03/13 07:40:04;;;;;;;6.30;1.20;;;;;;;;;;5095455;28;20604;-87
2021/03/13 07:42:30;;;;;;;2.25;0.93;;;;;;;;;;5075036;28;20890;-86
2021/03/13 07:44:56;;;;;;;2.55;0.82;;;;;;;;;;5091410;28;20444;-86
2021/03/13 07:47:22;;;;;;;2.38;0.77;;;;;;;;;;5096206;28;20410;-85
2021/03/13 07:49:48;;;;;;;2.92;1.10;;;;;;;;;;5061831;28;20408;-89
2021/03/13 07:52:14;;;;;;;3.22;1.00;;;;;;;;;;5050969;28;20408;-86
2021/03/13 07:54:44;;;;;;;1.50;1.10;;;;;;;;;;5111602;28;20400;-90
2021/03/13 07:57:10;;;;;;;2.97;0.80;;;;;;;;;;5088628;28;20416;-88
2021/03/13 07:59:49;;;;;;;3.90;1.00;;;;;;;;;;5086874;28;20418;-85
2021/03/13 08:02:33;;;;;;;1.58;0.77;;;;;;;;;;5071788;28;20394;-84
2021/03/13 08:05:00;;;;;;;2.38;0.80;;;;;;;;;;5072951;28;20485;-88
2021/03/13 08:13:41;;;;;;;2.50;0.88;;;;;;;;;;5048535;28;20408;-87
2021/03/13 08:16:13;;;;;;;1.23;0.70;;;;;;;;;;5059909;28;20759;-87
2021/03/13 08:18:49;;;;;;;5.80;1.05;;;;;;;;;;5076994;28;20841;-87
2021/03/13 08:21:18;;;;;;;1.70;0.57;;;;;;;;;;5085240;28;20478;-87
2021/03/13 08:23:54;;;;;;;2.33;0.55;;;;;;;;;;5075231;28;20430;-88
2021/03/13 08:26:23;;;;;;;2.92;0.65;;;;;;;;;;5077212;28;20895;-87
2021/03/13 08:28:49;;;;;;;1.10;0.45;;;;;;;;;;5074936;28;20411;-86
2021/03/13 08:31:28;;;;;;;2.25;0.85;;;;;;;;;;5086673;28;20871;-86
2021/03/13 08:34:03;;;;;;;3.85;1.13;;;;;;;;;;5087568;28;20431;-87
2021/03/13 08:36:50;;;;;;;1.20;0.40;;;;;;;;;;5093438;28;20401;-85
2021/03/13 08:39:19;;;;;;;1.80;0.73;;;;;;;;;;5081814;28;20391;-86
2021/03/13 08:41:49;;;;;;;5.65;0.68;;;;;;;;;;5089834;28;20491;-86
2021/03/13 08:44:24;;;;;;;1.70;0.50;;;;;;;;;;5073202;28;20852;-86
2021/03/13 08:46:56;;;;;;;2.20;1.20;;;;;;;;;;5074348;28;20427;-86
2021/03/13 08:49:26;;;;;;;1.15;0.88;;;;;;;;;;5077832;28;20473;-86
2021/03/13 08:52:04;;;;;;;3.13;0.75;;;;;;;;;;5108014;28;20447;-86
2021/03/13 08:54:40;;;;;;;2.47;0.60;;;;;;;;;;5100485;28;20427;-89
2021/03/13 08:57:06;;;;;;;1.48;0.80;;;;;;;;;;5078332;28;20393;-88
2021/03/13 08:59:35;;;;;;;3.40;0.50;;;;;;;;;;5056747;28;20407;-88
2021/03/13 09:02:11;;;;;;;1.27;0.50;;;;;;;;;;5100294;28;20417;-87
2021/03/13 09:04:37;;;;;;;2.40;0.60;;;;;;;;;;5102168;28;20419;-87
2021/03/13 09:07:04;;;;;;;1.83;0.63;;;;;;;;;;5072527;28;20408;-86
2021/03/13 09:09:30;;;;;;;1.80;1.00;;;;;;;;;;5100547;28;20423;-87
2021/03/13 09:11:57;;;;;;;1.60;0.80;;;;;;;;;;5089988;28;20388;-87
2021/03/13 09:14:23;;;;;;;5.65;0.77;;;;;;;;;;5039340;28;20806;-86
2021/03/13 09:16:49;;;;;;;2.00;0.63;;;;;;;;;;5065583;28;20559;-87
2021/03/13 09:19:15;;;;;;;1.70;0.60;;;;;;;;;;5089649;28;20395;-87
2021/03/13 09:21:41;;;;;;;1.02;0.40;;;;;;;;;;5092074;28;20405;-88
2021/03/13 09:24:24;;;;;;;2.33;0.50;;;;;;;;;;5083182;28;20423;-87
2021/03/13 09:26:53;;;;;;;2.67;0.52;;;;;;;;;;5092723;28;20916;-88
2021/03/13 09:29:36;;;;;;;3.90;1.17;;;;;;;;;;5059332;28;20397;-88
2021/03/13 09:32:05;;;;;;;4.07;0.57;;;;;;;;;;5059208;28;20390;-87
2021/03/13 09:34:34;;;;;;;2.13;0.70;;;;;;;;;;5098753;28;20440;-87
2021/03/13 09:37:11;;;;;;;2.63;0.80;;;;;;;;;;5084129;28;20485;-88
2021/03/13 09:39:46;;;;;;;2.55;0.68;;;;;;;;;;5095803;28;20407;-87
2021/03/13 09:42:16;;;;;;;1.85;0.88;;;;;;;;;;5086415;28;20406;-87
2021/03/13 09:44:42;;;;;;;3.00;1.00;;;;;;;;;;5089005;28;20446;-87
2021/03/13 09:47:12;;;;;;;2.97;0.90;;;;;;;;;;5074523;28;20454;-87
2021/03/13 09:49:38;;;;;;;3.63;0.90;;;;;;;;;;5059305;28;20401;-87
2021/03/13 09:52:04;;;;;;;1.23;0.63;;;;;;;;;;5075516;28;20853;-87
2021/03/13 09:54:30;;;;;;;0.65;0.52;;;;;;;;;;5091929;28;20406;-88
2021/03/13 09:56:56;;;;;;;2.30;0.85;;;;;;;;;;5074705;28;20401;-87
2021/03/13 09:59:22;;;;;;;2.55;1.10;;;;;;;;;;5091627;28;20398;-87
2021/03/13 10:01:50;;;;;;;1.80;0.65;;;;;;;;;;5055662;28;20445;-88
2021/03/13 10:04:16;;;;;;;2.70;0.68;;;;;;;;;;5085739;28;20424;-87
2021/03/13 10:06:42;;;;;;;2.47;0.68;;;;;;;;;;5091019;28;20410;-87
2021/03/13 10:09:11;;;;;;;2.50;1.00;;;;;;;;;;5038667;28;20398;-88
2021/03/13 10:11:38;;;;;;;1.60;0.65;;;;;;;;;;5105039;28;20461;-88
2021/03/13 10:14:04;;;;;;;1.92;0.68;;;;;;;;;;5089686;28;20404;-87
2021/03/13 10:16:31;;;;;;;1.67;0.95;;;;;;;;;;5087734;28;20400;-87
2021/03/13 10:19:00;;;;;;;3.33;1.00;;;;;;;;;;5065452;28;20398;-87
2021/03/13 10:21:26;;;;;;;0.95;0.50;;;;;;;;;;5075170;28;20385;-87
2021/03/13 10:23:57;;;;;;;1.30;0.55;;;;;;;;;;5086819;28;20734;-87
2021/03/13 10:26:23;;;;;;;1.20;0.65;;;;;;;;;;5089787;28;20394;-87
2021/03/13 10:28:50;;;;;;;2.08;0.75;;;;;;;;;;5075286;28;20495;-87
2021/03/13 10:31:19;;;;;;;3.03;0.60;;;;;;;;;;5071070;28;20396;-88
2021/03/13 10:33:45;;;;;;;1.15;0.60;;;;;;;;;;5074240;28;20405;-88
2021/03/13 10:36:11;;;;;;;2.72;0.98;;;;;;;;;;5084283;28;20403;-87
2021/03/13 10:38:47;;;;;;;1.20;0.60;;;;;;;;;;5086559;28;20423;-87
2021/03/13 10:41:17;;;;;;;2.30;0.90;;;;;;;;;;5076151;28;20405;-87
2021/03/13 10:43:46;;;;;;;2.15;0.70;;;;;;;;;;5071008;28;20454;-88
2021/03/13 10:46:14;;;;;;;2.30;1.00;;;;;;;;;;5090129;28;20759;-87
2021/03/13 10:49:00;;;;;;;0.77;0.60;;;;;;;;;;5087889;28;20456;-87
2021/03/13 10:51:27;;;;;;;1.98;1.13;;;;;;;;;;5087451;28;20423;-88
2021/03/13 10:53:53;;;;;;;2.13;0.70;;;;;;;;;;5085895;28;20398;-87
2021/03/13 10:56:19;;;;;;;4.22;0.55;;;;;;;;;;5081554;28;20413;-88
2021/03/13 10:58:52;;;;;;;2.88;0.50;;;;;;;;;;5076529;28;20395;-87
2021/03/13 11:01:24;;;;;;;3.40;0.70;;;;;;;;;;5074338;28;20383;-87
2021/03/13 11:03:51;;;;;;;1.67;0.80;;;;;;;;;;5090922;28;20412;-87
2021/03/13 11:06:30;;;;;;;2.20;1.02;;;;;;;;;;5073312;28;20389;-87
2021/03/13 11:08:56;;;;;;;2.15;0.70;;;;;;;;;;5075114;28;20461;-88
2021/03/13 11:11:25;;;;;;;1.30;0.50;;;;;;;;;;5095557;28;20403;-87
2021/03/13 11:13:56;;;;;;;1.80;0.63;;;;;;;;;;5090331;28;20970;-88
2021/03/13 11:19:19;;;;;;;1.20;0.63;;;;;;;;;;5033263;28;20401;-86
2021/03/13 11:21:47;;;;;;;1.40;0.80;;;;;;;;;;5045155;28;20416;-88
2021/03/13 11:24:13;;;;;;;2.05;0.90;;;;;;;;;;5067554;28;20432;-88
2021/03/13 11:26:41;;;;;;;3.30;1.10;;;;;;;;;;5079139;28;21206;-90
2021/03/13 11:29:07;;;;;;;1.30;1.20;;;;;;;;;;5067122;28;20428;-90
2021/03/13 11:31:33;;;;;;;3.72;1.20;;;;;;;;;;5086486;28;20396;-89
2021/03/13 11:34:02;;;;;;;2.03;0.70;;;;;;;;;;5087090;28;20461;-88
2021/03/13 11:36:30;;;;;;;1.57;0.70;;;;;;;;;;5081213;28;20412;-89
2021/03/13 11:38:56;;;;;;;1.73;0.70;;;;;;;;;;5088381;28;20397;-89
2021/03/13 11:41:43;;;;;;;1.73;0.93;;;;;;;;;;5076801;28;20508;-89
2021/03/13 11:44:10;;;;;;;1.80;1.00;;;;;;;;;;5087837;28;20427;-88
2021/03/13 11:46:36;;;;;;;1.98;0.50;;;;;;;;;;5071862;28;20841;-88
2021/03/13 11:49:05;;;;;;;1.70;0.50;;;;;;;;;;5068005;28;20414;-89
2021/03/13 11:51:30;;;;;;;1.42;0.77;;;;;;;;;;5067796;28;20401;-88
2021/03/13 11:54:00;;;;;;;1.27;0.90;;;;;;;;;;5081573;28;20919;-89
2021/03/13 11:56:25;;;;;;;1.10;0.55;;;;;;;;;;5073893;28;20415;-89
2021/03/13 11:58:51;;;;;;;3.63;1.10;;;;;;;;;;5087074;28;20388;-89
2021/03/13 12:01:19;;;;;;;2.30;1.00;;;;;;;;;;5078296;28;20412;-88
2021/03/13 12:03:45;;;;;;;2.37;0.80;;;;;;;;;;5066431;28;20421;-88
2021/03/13 12:06:11;;;;;;;1.35;0.65;;;;;;;;;;5067320;28;20778;-87
2021/03/13 12:08:40;;;;;;;1.77;0.60;;;;;;;;;;5098315;28;20407;-88
2021/03/13 12:11:06;;;;;;;1.45;0.50;;;;;;;;;;5098027;28;20409;-87
2021/03/13 12:13:42;;;;;;;1.92;0.45;;;;;;;;;;5056727;28;20400;-88
2021/03/13 12:16:08;;;;;;;2.30;0.30;;;;;;;;;;5103423;28;20396;-88
2021/03/13 12:18:34;;;;;;;2.80;0.28;;;;;;;;;;5074290;28;20389;-88
2021/03/13 12:21:00;;;;;;;1.50;0.40;;;;;;;;;;5059462;28;20409;-88
2021/03/13 12:23:31;;;;;;;0.80;0.40;;;;;;;;;;5079130;28;20416;-88
2021/03/13 12:25:57;;;;;;;0.40;0.32;;;;;;;;;;5086800;28;20454;-87
2021/03/13 12:28:22;;;;;;;0.60;0.50;;;;;;;;;;5075323;28;20415;-88
2021/03/13 12:30:48;;;;;;;0.75;0.32;;;;;;;;;;5056500;28;20391;-88
2021/03/13 12:33:14;;;;;;;1.00;0.50;;;;;;;;;;5078383;28;20490;-88
2021/03/13 12:35:40;;;;;;;0.75;0.55;;;;;;;;;;5085434;28;20388;-87
2021/03/13 12:38:09;;;;;;;2.38;0.52;;;;;;;;;;5085530;28;20492;-88
2021/03/13 12:40:37;;;;;;;1.77;0.30;;;;;;;;;;5069999;28;20441;-88
2021/03/13 12:43:03;;;;;;;2.13;0.73;;;;;;;;;;5069567;28;20850;-87
2021/03/13 12:45:29;;;;;;;2.13;0.38;;;;;;;;;;5076384;28;20490;-88
2021/03/13 12:50:58;;;;;;;2.33;0.60;;;;;;;;;;5064782;28;20514;-88
2021/03/13 12:53:33;;;;;;;1.58;0.63;;;;;;;;;;5073371;28;20453;-88
2021/03/13 12:55:58;;;;;;;4.20;1.27;;;;;;;;;;5068520;28;20402;-88
2021/03/13 12:58:24;;;;;;;4.77;1.60;;;;;;;;;;5086626;28;20488;-87
2021/03/13 13:00:53;;;;;;;3.83;1.00;;;;;;;;;;5087081;28;20870;-88
2021/03/13 13:03:19;;;;;;;4.68;1.80;;;;;;;;;;5084783;28;20415;-88
2021/03/13 13:05:45;;;;;;;7.47;1.98;;;;;;;;;;5079555;28;20439;-87
2021/03/13 13:08:11;;;;;;;6.40;2.42;;;;;;;;;;5060181;28;20872;-87
2021/03/13 13:10:38;;;;;;;4.07;1.15;;;;;;;;;;5067757;28;20438;-88
2021/03/13 13:13:13;;;;;;;3.03;1.17;;;;;;;;;;5086591;28;20439;-88
2021/03/13 13:15:47;;;;;;;2.63;1.10;;;;;;;;;;5060705;28;20920;-87
2021/03/13 13:18:13;;;;;;;3.10;1.00;;;;;;;;;;5056387;28;20409;-87
2021/03/13 13:20:48;;;;;;;3.13;1.10;;;;;;;;;;5081324;28;20977;-88
2021/03/13 13:23:14;;;;;;;4.35;1.40;;;;;;;;;;5080484;28;20420;-88
2021/03/13 13:25:41;;;;;;;4.50;2.50;;;;;;;;;;5067544;28;20463;-88
2021/03/13 13:28:07;;;;;;;6.95;2.13;;;;;;;;;;5055985;28;20447;-89
2021/03/13 13:30:33;;;;;;;2.58;1.30;;;;;;;;;;5070197;28;20420;-88
2021/03/13 13:32:59;;;;;;;2.15;0.93;;;;;;;;;;5068823;28;20756;-88
2021/03/13 13:35:25;;;;;;;3.22;1.20;;;;;;;;;;5053246;28;20405;-88
2021/03/13 13:37:52;;;;;;;1.90;1.30;;;;;;;;;;5085728;28;20389;-88
2021/03/13 13:40:18;;;;;;;3.10;1.20;;;;;;;;;;5068895;28;20406;-87
2021/03/13 13:42:47;;;;;;;3.00;1.60;;;;;;;;;;5064099;28;20396;-88
2021/03/13 13:45:14;;;;;;;2.95;1.10;;;;;;;;;;5073232;28;20417;-86
2021/03/13 13:47:41;;;;;;;2.75;1.45;;;;;;;;;;5076813;28;20954;-88
2021/03/13 13:50:07;;;;;;;1.35;1.10;;;;;;;;;;5078135;28;20496;-87
2021/03/13 13:52:33;;;;;;;3.53;1.93;;;;;;;;;;5061015;28;21015;-88
2021/03/13 13:55:01;;;;;;;2.00;1.40;;;;;;;;;;5042320;28;20432;-87
2021/03/13 13:57:28;;;;;;;5.13;2.25;;;;;;;;;;5029062;28;20471;-88
2021/03/13 13:59:54;;;;;;;3.63;1.58;;;;;;;;;;5058601;28;20410;-89
2021/03/13 14:02:20;;;;;;;2.55;1.13;;;;;;;;;;5054532;28;20494;-87
2021/03/13 14:04:49;;;;;;;1.50;0.60;;;;;;;;;;5056855;28;20437;-89
2021/03/13 14:07:18;;;;;;;0.60;0.60;;;;;;;;;;5068097;28;20454;-88
2021/03/13 14:09:44;;;;;;;1.00;1.00;;;;;;;;;;5064994;28;20503;-88
2021/03/13 14:12:10;;;;;;;0.70;0.60;;;;;;;;;;5062457;28;20408;-87
2021/03/13 14:14:36;;;;;;;1.10;1.10;;;;;;;;;;5077053;28;20410;-88
2021/03/13 14:17:02;;;;;;;1.25;1.15;;;;;;;;;;5078576;28;20441;-89
2021/03/13 14:19:28;;;;;;;2.40;1.20;;;;;;;;;;5104543;28;20383;-88
2021/03/13 14:21:54;;;;;;;1.58;1.08;;;;;;;;;;5084904;28;20762;-87
2021/03/13 14:24:20;;;;;;;1.73;1.00;;;;;;;;;;5075263;28;20435;-88
2021/03/13 14:26:45;;;;;;;1.83;1.73;;;;;;;;;;5063630;28;20484;-89
2021/03/13 14:29:12;;;;;;;1.38;1.02;;;;;;;;;;5087146;28;20391;-88
2021/03/13 14:31:38;;;;;;;1.33;1.00;;;;;;;;;;5085631;28;20425;-88
2021/03/13 14:34:05;;;;;;;1.73;1.00;;;;;;;;;;5089687;28;20934;-87
2021/03/13 14:36:31;;;;;;;0.60;0.60;;;;;;;;;;5064433;28;20392;-88
2021/03/13 14:39:04;;;;;;;0.52;0.52;;;;;;;;;;5053843;28;20396;-88
2021/03/13 14:41:30;;;;;;;1.17;0.63;;;;;;;;;;5078018;28;20396;-88
2021/03/13 14:43:56;;;;;;;0.90;0.73;;;;;;;;;;5078333;28;20937;-88
2021/03/13 14:46:22;;;;;;;0.50;0.50;;;;;;;;;;5095814;28;20768;-88
2021/03/13 14:48:48;;;;;;;1.00;0.63;;;;;;;;;;5067423;28;20906;-88
2021/03/13 14:51:14;;;;;;;0.90;0.73;;;;;;;;;;5070902;28;20396;-88
2021/03/13 14:53:40;;;;;;;0.80;0.75;;;;;;;;;;5083656;28;20756;-88
2021/03/13 14:56:06;;;;;;;0.98;0.40;;;;;;;;;;5067301;28;20397;-88
2021/03/13 14:58:32;;;;;;;0.90;0.70;;;;;;;;;;5068500;28;20397;-89